createdAt,value
2022-08-31T00:02:04.290Z,0.60
2022-08-31T00:04:33.181Z,0.57
2022-08-31T00:07:01.821Z,0.50
2022-08-31T00:09:31.441Z,0.60
2022-08-31T00:12:00.037Z,0.70
2022-08-31T00:14:30.225Z,0.60
2022-08-31T00:16:58.826Z,0.47
2022-08-31T00:19:27.456Z,0.50
2022-08-31T00:21:55.938Z,0.60
2022-08-31T00:24:24.490Z,0.53
2022-08-31T00:26:53.110Z,0.70
2022-08-31T00:29:21.675Z,0.60
2022-08-31T00:31:51.748Z,0.63
2022-08-31T00:34:22.438Z,0.63
2022-08-31T00:36:50.928Z,0.60
2022-08-31T00:39:19.586Z,0.60
2022-08-31T00:41:48.338Z,0.67
2022-08-31T00:44:16.785Z,0.60
2022-08-31T00:46:45.529Z,0.50
2022-08-31T00:49:15.967Z,0.50
2022-08-31T00:51:46.336Z,0.70
2022-08-31T00:54:16.657Z,0.43
2022-08-31T00:56:45.318Z,0.60
2022-08-31T00:59:14.887Z,0.60
2022-08-31T01:01:43.694Z,0.50
2022-08-31T01:04:12.217Z,0.67
2022-08-31T01:06:42.282Z,0.70
2022-08-31T01:09:11.410Z,0.60
2022-08-31T01:11:40.810Z,0.70
2022-08-31T01:14:09.552Z,0.60
2022-08-31T01:16:39.568Z,0.70
2022-08-31T01:19:15.502Z,0.60
2022-08-31T01:21:48.650Z,0.57
2022-08-31T01:24:19.234Z,0.60
2022-08-31T01:26:49.785Z,0.60
2022-08-31T01:29:24.676Z,0.60
2022-08-31T01:31:53.301Z,0.60
2022-08-31T01:34:21.793Z,0.60
2022-08-31T01:36:51.829Z,0.73
2022-08-31T01:39:22.077Z,0.67
2022-08-31T01:41:50.884Z,0.60
2022-08-31T01:44:20.895Z,0.80
2022-08-31T01:46:49.970Z,0.60
2022-08-31T01:49:19.704Z,0.60
2022-08-31T01:51:49.271Z,0.53
2022-08-31T01:54:18.015Z,0.60
2022-08-31T01:56:48.947Z,0.50
2022-08-31T01:59:18.563Z,0.70
2022-08-31T02:01:48.418Z,0.60
2022-08-31T02:04:17.241Z,0.70
2022-08-31T02:06:47.234Z,0.70
2022-08-31T02:09:15.918Z,0.77
2022-08-31T02:11:44.849Z,0.70
2022-08-31T02:14:14.843Z,0.60
2022-08-31T02:16:43.656Z,0.70
2022-08-31T02:19:12.388Z,0.70
2022-08-31T02:21:41.425Z,0.70
2022-08-31T02:24:11.330Z,0.60
2022-08-31T02:26:40.103Z,0.87
2022-08-31T02:29:08.986Z,0.70
2022-08-31T02:31:38.937Z,0.67
2022-08-31T02:34:07.478Z,0.47
2022-08-31T02:36:36.295Z,0.60
2022-08-31T02:39:05.920Z,0.70
2022-08-31T02:41:34.543Z,0.70
2022-08-31T02:44:03.258Z,0.70
2022-08-31T02:46:31.809Z,0.60
2022-08-31T02:49:02.497Z,0.77
2022-08-31T02:51:31.282Z,0.80
2022-08-31T02:54:00.011Z,0.80
2022-08-31T02:56:28.543Z,0.70
2022-08-31T02:58:57.139Z,0.70
2022-08-31T03:01:26.539Z,0.67
2022-08-31T03:03:55.126Z,0.60
2022-08-31T03:06:25.124Z,0.60
2022-08-31T03:08:53.746Z,0.90
2022-08-31T03:11:22.236Z,0.60
2022-08-31T03:13:53.292Z,0.73
2022-08-31T03:16:25.290Z,0.67
2022-08-31T03:18:54.206Z,0.73
2022-08-31T03:21:22.682Z,0.70
2022-08-31T03:23:52.687Z,0.70
2022-08-31T03:26:21.286Z,0.60
2022-08-31T03:28:49.775Z,0.80
2022-08-31T03:31:18.474Z,0.80
2022-08-31T03:33:47.089Z,0.70
2022-08-31T03:36:16.357Z,0.80
2022-08-31T03:38:45.118Z,0.80
2022-08-31T03:41:16.595Z,0.60
2022-08-31T03:43:45.875Z,0.90
2022-08-31T03:46:14.556Z,0.70
2022-08-31T03:48:43.286Z,0.80
2022-08-31T03:51:13.066Z,0.70
2022-08-31T03:53:41.553Z,0.70
2022-08-31T03:56:10.706Z,0.60
2022-08-31T03:58:40.714Z,0.80
2022-08-31T04:01:09.232Z,0.83
2022-08-31T04:03:38.160Z,0.70
2022-08-31T04:06:09.296Z,0.80
2022-08-31T04:08:37.785Z,0.70
2022-08-31T04:11:09.474Z,0.90
2022-08-31T04:13:39.803Z,0.90
2022-08-31T04:16:12.284Z,0.90
2022-08-31T04:18:41.143Z,0.83
2022-08-31T04:21:12.867Z,0.67
2022-08-31T04:23:41.746Z,0.97
2022-08-31T04:26:16.710Z,0.83
2022-08-31T04:28:45.322Z,0.80
2022-08-31T04:31:15.278Z,0.70
2022-08-31T04:33:44.198Z,0.87
2022-08-31T04:36:14.122Z,0.90
2022-08-31T04:38:44.531Z,0.87
2022-08-31T04:41:13.838Z,0.80
2022-08-31T04:43:45.143Z,0.77
2022-08-31T04:46:15.363Z,0.83
2022-08-31T04:48:44.062Z,0.90
2022-08-31T04:51:14.334Z,0.90
2022-08-31T04:53:43.154Z,0.83
2022-08-31T04:56:14.526Z,0.80
2022-08-31T04:58:44.266Z,0.90
2022-08-31T05:01:13.560Z,0.80
2022-08-31T05:03:43.990Z,0.83
2022-08-31T05:06:14.958Z,0.77
2022-08-31T05:08:44.141Z,0.70
2022-08-31T05:11:12.934Z,0.70
2022-08-31T05:13:41.490Z,0.70
2022-08-31T05:16:11.430Z,0.70
2022-08-31T05:18:40.354Z,0.90
2022-08-31T05:21:13.664Z,0.80
2022-08-31T05:23:42.245Z,0.73
2022-08-31T05:26:10.890Z,0.70
2022-08-31T05:28:39.574Z,0.80
2022-08-31T05:31:08.275Z,0.70
2022-08-31T05:33:36.817Z,0.70
2022-08-31T05:36:06.054Z,0.70
2022-08-31T05:38:36.460Z,0.87
2022-08-31T05:41:06.115Z,0.80
2022-08-31T05:43:35.217Z,0.87
2022-08-31T05:46:08.043Z,1.00
2022-08-31T05:48:38.841Z,0.80
2022-08-31T05:51:08.811Z,0.60
2022-08-31T05:53:41.885Z,0.83
2022-08-31T05:56:11.733Z,0.80
2022-08-31T05:58:40.605Z,0.80
2022-08-31T06:01:16.455Z,0.80
2022-08-31T06:03:44.953Z,0.90
2022-08-31T06:06:13.601Z,1.00
2022-08-31T06:08:43.913Z,0.90
2022-08-31T06:11:17.602Z,1.00
2022-08-31T06:13:46.401Z,0.80
2022-08-31T06:16:17.604Z,0.83
2022-08-31T06:18:50.990Z,1.00
2022-08-31T06:21:21.107Z,1.07
2022-08-31T06:23:51.766Z,1.17
2022-08-31T06:26:21.676Z,1.00
2022-08-31T06:28:51.293Z,1.00
2022-08-31T06:31:24.321Z,1.00
2022-08-31T06:33:53.454Z,1.30
2022-08-31T06:36:22.990Z,1.00
2022-08-31T06:38:53.059Z,0.80
2022-08-31T06:41:22.746Z,0.73
2022-08-31T06:43:51.413Z,0.70
2022-08-31T06:46:20.699Z,0.87
2022-08-31T06:48:50.734Z,0.77
2022-08-31T06:51:19.579Z,0.80
2022-08-31T06:53:48.154Z,0.80
2022-08-31T06:56:21.084Z,0.70
2022-08-31T06:58:53.839Z,0.70
2022-08-31T07:01:35.994Z,0.70
2022-08-31T07:04:06.254Z,0.60
2022-08-31T07:06:36.682Z,0.60
2022-08-31T07:09:06.861Z,0.70
2022-08-31T07:11:43.543Z,0.60
2022-08-31T07:14:13.896Z,0.50
2022-08-31T07:16:42.839Z,0.60
2022-08-31T07:19:11.866Z,0.67
2022-08-31T07:21:41.805Z,0.60
2022-08-31T07:24:10.982Z,0.60
2022-08-31T07:26:42.491Z,0.40
2022-08-31T07:29:11.625Z,0.47
2022-08-31T07:31:46.333Z,0.60
2022-08-31T07:34:15.659Z,0.60
2022-08-31T07:37:02.566Z,0.60
2022-08-31T07:39:49.945Z,0.50
2022-08-31T07:42:20.786Z,0.47
2022-08-31T07:44:51.946Z,0.40
2022-08-31T07:47:22.701Z,0.40
2022-08-31T07:49:52.836Z,0.30
2022-08-31T07:52:23.685Z,0.57
2022-08-31T07:54:52.707Z,0.40
2022-08-31T07:57:25.880Z,0.40
2022-08-31T07:59:56.005Z,0.50
2022-08-31T08:02:24.694Z,0.40
2022-08-31T08:04:54.032Z,0.60
2022-08-31T08:07:22.541Z,0.67
2022-08-31T08:09:55.706Z,0.53
2022-08-31T08:12:27.306Z,0.47
2022-08-31T08:14:59.499Z,0.50
2022-08-31T08:17:28.042Z,0.47
2022-08-31T08:19:56.510Z,0.40
2022-08-31T08:22:41.899Z,0.50
2022-08-31T08:25:16.574Z,0.47
2022-08-31T08:27:46.778Z,0.50
2022-08-31T08:30:16.402Z,0.40
2022-08-31T08:32:45.218Z,0.60
2022-08-31T08:35:14.266Z,0.40
2022-08-31T08:37:57.950Z,0.40
2022-08-31T08:40:39.673Z,0.50
2022-08-31T08:43:10.722Z,0.43
2022-08-31T08:45:39.630Z,0.30
2022-08-31T08:48:11.561Z,0.60
2022-08-31T08:50:41.561Z,0.50
2022-08-31T08:53:11.255Z,0.40
2022-08-31T08:55:40.863Z,0.40
2022-08-31T08:58:13.504Z,0.30
2022-08-31T09:00:46.963Z,0.40
2022-08-31T09:03:21.429Z,0.37
2022-08-31T09:06:00.414Z,0.40
2022-08-31T09:08:43.918Z,0.17
2022-08-31T09:11:18.810Z,0.20
2022-08-31T09:13:56.143Z,0.20
2022-08-31T09:16:30.256Z,0.20
2022-08-31T09:19:01.833Z,0.17
2022-08-31T09:21:34.619Z,0.20
2022-08-31T09:24:03.969Z,0.40
2022-08-31T09:26:35.863Z,0.20
2022-08-31T09:29:13.987Z,0.30
2022-08-31T09:31:43.920Z,0.30
2022-08-31T09:34:28.501Z,0.30
2022-08-31T09:37:16.496Z,0.37
2022-08-31T09:39:47.733Z,0.30
2022-08-31T09:42:20.288Z,0.30
2022-08-31T09:44:51.062Z,0.23
2022-08-31T09:47:45.729Z,0.40
2022-08-31T09:50:25.809Z,0.30
2022-08-31T09:53:25.038Z,0.30
2022-08-31T09:56:05.686Z,0.30
2022-08-31T09:58:36.822Z,0.20
2022-08-31T10:01:13.481Z,0.30
2022-08-31T10:03:45.714Z,0.30
2022-08-31T10:06:35.854Z,0.30
2022-08-31T10:09:06.145Z,0.40
2022-08-31T10:11:36.310Z,0.30
2022-08-31T10:14:08.821Z,0.20
2022-08-31T10:16:42.834Z,0.40
2022-08-31T10:19:13.460Z,0.27
2022-08-31T10:21:52.278Z,0.30
2022-08-31T10:24:28.282Z,0.30
2022-08-31T10:27:03.938Z,0.20
2022-08-31T10:29:35.765Z,0.30
2022-08-31T10:32:10.113Z,0.30
2022-08-31T10:35:00.160Z,0.43
2022-08-31T10:37:34.028Z,0.30
2022-08-31T10:40:07.368Z,0.20
2022-08-31T10:42:37.722Z,0.37
2022-08-31T10:45:10.595Z,0.13
2022-08-31T10:47:44.938Z,0.17
2022-08-31T10:50:16.475Z,0.30
2022-08-31T10:52:53.397Z,0.20
2022-08-31T10:55:30.065Z,0.30
2022-08-31T10:58:02.535Z,0.20
2022-08-31T11:00:46.037Z,0.20
2022-08-31T11:03:19.695Z,0.20
2022-08-31T11:05:51.284Z,0.20
2022-08-31T11:08:35.838Z,0.30
2022-08-31T11:11:08.166Z,0.30
2022-08-31T11:14:00.493Z,0.40
2022-08-31T11:16:37.104Z,0.20
2022-08-31T11:19:27.398Z,0.40
2022-08-31T11:22:08.352Z,0.30
2022-08-31T11:24:48.854Z,0.13
2022-08-31T11:27:23.741Z,0.30
2022-08-31T11:29:56.772Z,0.20
2022-08-31T11:32:28.059Z,0.20
2022-08-31T11:34:57.453Z,0.30
2022-08-31T11:37:46.370Z,0.20
2022-08-31T11:40:41.934Z,0.20
2022-08-31T11:43:14.697Z,0.30
2022-08-31T11:45:43.946Z,0.20
2022-08-31T11:48:37.867Z,0.20
2022-08-31T11:51:08.359Z,0.20
2022-08-31T11:53:41.317Z,0.30
2022-08-31T11:56:14.501Z,0.47
2022-08-31T11:58:45.366Z,0.20
2022-08-31T12:01:30.794Z,0.20
2022-08-31T12:04:03.936Z,0.20
2022-08-31T12:06:51.137Z,0.20
2022-08-31T12:09:24.022Z,0.30
2022-08-31T12:11:54.935Z,0.20
2022-08-31T12:14:26.351Z,0.30
2022-08-31T12:17:02.039Z,0.17
2022-08-31T12:19:59.113Z,0.10
2022-08-31T12:23:05.605Z,0.20
2022-08-31T12:25:37.026Z,0.23
2022-08-31T12:28:12.714Z,0.20
2022-08-31T12:30:50.192Z,0.23
2022-08-31T12:33:20.227Z,0.20
2022-08-31T12:35:49.689Z,1.03
2022-08-31T12:38:22.414Z,0.27
2022-08-31T12:40:52.263Z,0.30
2022-08-31T12:43:26.047Z,0.30
2022-08-31T12:46:09.438Z,0.27
2022-08-31T12:48:53.881Z,0.30
2022-08-31T12:51:31.622Z,0.30
2022-08-31T12:54:15.135Z,0.20
2022-08-31T12:56:48.418Z,0.30
2022-08-31T12:59:36.292Z,0.20
2022-08-31T13:02:13.914Z,0.23
2022-08-31T13:04:46.050Z,0.23
2022-08-31T13:07:15.863Z,0.17
2022-08-31T13:09:45.964Z,0.30
2022-08-31T13:12:24.001Z,0.32
2022-08-31T13:14:53.878Z,0.20
2022-08-31T13:17:22.789Z,0.20
2022-08-31T13:19:52.886Z,0.15
2022-08-31T13:22:28.165Z,0.10
2022-08-31T13:24:57.755Z,0.13
2022-08-31T13:27:27.550Z,0.30
2022-08-31T13:30:00.261Z,0.30
2022-08-31T13:32:32.449Z,0.40
2022-08-31T13:35:03.127Z,0.40
2022-08-31T13:37:33.822Z,0.30
2022-08-31T13:40:06.373Z,0.20
2022-08-31T13:42:37.773Z,0.30
2022-08-31T13:45:09.411Z,0.30
2022-08-31T13:47:48.749Z,0.40
2022-08-31T13:50:27.229Z,0.38
2022-08-31T13:53:23.030Z,0.28
2022-08-31T13:55:48.969Z,0.30
2022-08-31T13:58:26.212Z,0.30
2022-08-31T14:01:18.967Z,0.20
2022-08-31T14:03:56.354Z,0.20
2022-08-31T14:06:25.399Z,0.27
2022-08-31T14:08:55.630Z,0.30
2022-08-31T14:11:28.602Z,0.40
2022-08-31T14:13:59.173Z,0.20
2022-08-31T14:16:32.746Z,0.20
2022-08-31T14:19:01.986Z,0.27
2022-08-31T14:21:31.911Z,0.30
2022-08-31T14:24:04.854Z,0.30
2022-08-31T14:26:34.550Z,0.20
2022-08-31T14:29:04.107Z,0.20
2022-08-31T14:31:37.348Z,0.30
2022-08-31T14:34:11.668Z,0.37
2022-08-31T14:36:46.159Z,0.20
2022-08-31T14:39:14.911Z,0.30
2022-08-31T14:41:43.951Z,0.40
2022-08-31T14:44:13.682Z,0.30
2022-08-31T14:46:44.385Z,0.20
2022-08-31T14:49:12.849Z,0.30
2022-08-31T14:51:43.622Z,0.30
2022-08-31T14:54:12.102Z,0.20
2022-08-31T14:56:46.949Z,0.30
2022-08-31T14:59:17.218Z,0.30
2022-08-31T15:01:50.815Z,0.30
2022-08-31T15:04:20.919Z,0.22
2022-08-31T15:06:51.690Z,0.28
2022-08-31T15:09:20.209Z,0.40
2022-08-31T15:11:51.373Z,0.28
2022-08-31T15:14:20.211Z,0.40
2022-08-31T15:16:51.434Z,0.40
2022-08-31T15:19:19.950Z,0.47
2022-08-31T15:21:58.799Z,0.40
2022-08-31T15:24:31.535Z,0.30
2022-08-31T15:27:00.286Z,0.40
2022-08-31T15:29:30.499Z,0.50
2022-08-31T15:32:01.163Z,0.40
2022-08-31T15:34:31.244Z,0.43
2022-08-31T15:37:01.294Z,0.50
2022-08-31T15:39:32.573Z,0.40
2022-08-31T15:42:02.872Z,0.30
2022-08-31T15:44:35.277Z,0.32
2022-08-31T15:47:22.985Z,0.43
2022-08-31T15:49:51.990Z,0.40
2022-08-31T15:52:20.756Z,0.30
2022-08-31T15:54:50.456Z,0.40
2022-08-31T15:57:19.261Z,0.40
2022-08-31T15:59:47.997Z,0.50
2022-08-31T16:02:20.584Z,0.20
2022-08-31T16:04:50.753Z,0.40
2022-08-31T16:07:22.753Z,0.63
2022-08-31T16:09:51.326Z,0.40
2022-08-31T16:12:21.341Z,0.30
2022-08-31T16:14:51.846Z,0.40
2022-08-31T16:17:21.718Z,0.30
2022-08-31T16:19:50.350Z,0.30
2022-08-31T16:22:21.030Z,0.50
2022-08-31T16:24:51.102Z,0.20
2022-08-31T16:27:21.847Z,0.30
2022-08-31T16:29:52.167Z,0.30
2022-08-31T16:32:22.108Z,0.40
2022-08-31T16:34:50.811Z,0.30
2022-08-31T16:37:19.363Z,0.20
2022-08-31T16:39:48.097Z,0.30
2022-08-31T16:42:17.817Z,0.20
2022-08-31T16:44:47.903Z,0.40
2022-08-31T16:47:17.650Z,0.40
2022-08-31T16:49:46.958Z,0.40
2022-08-31T16:52:18.177Z,0.30
2022-08-31T16:54:48.454Z,0.47
2022-08-31T16:57:17.814Z,0.30
2022-08-31T16:59:46.573Z,0.40
2022-08-31T17:02:16.220Z,1.00
2022-08-31T17:04:53.886Z,0.33
2022-08-31T17:07:25.703Z,0.40
2022-08-31T17:09:57.323Z,0.50
2022-08-31T17:12:27.526Z,0.47
2022-08-31T17:14:56.201Z,0.60
2022-08-31T17:17:25.408Z,0.50
2022-08-31T17:19:56.069Z,0.50
2022-08-31T17:22:32.622Z,0.30
2022-08-31T17:25:03.753Z,0.40
2022-08-31T17:27:33.610Z,0.40
2022-08-31T17:30:05.943Z,0.60
2022-08-31T17:32:36.651Z,0.40
2022-08-31T17:35:15.264Z,0.60
2022-08-31T17:37:45.877Z,0.47
2022-08-31T17:40:16.952Z,0.30
2022-08-31T17:42:46.266Z,0.60
2022-08-31T17:45:15.661Z,0.50
2022-08-31T17:47:44.231Z,0.40
2022-08-31T17:50:14.023Z,0.43
2022-08-31T17:52:42.586Z,0.30
2022-08-31T17:55:13.120Z,0.40
2022-08-31T17:57:42.073Z,0.60
2022-08-31T18:00:14.452Z,0.43
2022-08-31T18:02:43.090Z,0.60
2022-08-31T18:05:12.374Z,0.50
2022-08-31T18:07:41.338Z,0.33
2022-08-31T18:10:10.863Z,0.37
2022-08-31T18:12:42.122Z,0.30
2022-08-31T18:15:11.923Z,0.33
2022-08-31T18:17:40.730Z,0.40
2022-08-31T18:20:10.650Z,0.50
2022-08-31T18:22:40.434Z,0.30
2022-08-31T18:25:09.147Z,0.50
2022-08-31T18:27:37.669Z,0.40
2022-08-31T18:30:08.465Z,0.47
2022-08-31T18:32:37.207Z,0.60
2022-08-31T18:35:14.288Z,1.03
2022-08-31T18:37:42.897Z,0.50
2022-08-31T18:40:29.550Z,0.40
2022-08-31T18:43:16.038Z,0.37
2022-08-31T18:45:50.586Z,0.40
2022-08-31T18:48:25.263Z,0.50
2022-08-31T18:51:03.191Z,0.60
2022-08-31T18:53:34.640Z,0.50
2022-08-31T18:56:07.461Z,0.50
2022-08-31T18:58:36.760Z,0.50
2022-08-31T19:01:10.439Z,0.60
2022-08-31T19:03:39.443Z,0.70
2022-08-31T19:06:08.280Z,0.37
2022-08-31T19:08:37.060Z,0.60
2022-08-31T19:11:08.083Z,0.60
2022-08-31T19:13:38.776Z,0.60
2022-08-31T19:16:15.484Z,0.60
2022-08-31T19:18:45.266Z,0.60
2022-08-31T19:21:14.645Z,0.50
2022-08-31T19:23:43.552Z,0.57
2022-08-31T19:26:14.966Z,0.47
2022-08-31T19:28:48.710Z,0.50
2022-08-31T19:31:22.566Z,0.80
2022-08-31T19:33:56.527Z,0.70
2022-08-31T19:36:27.627Z,0.70
2022-08-31T19:38:57.551Z,0.60
2022-08-31T19:41:26.962Z,0.60
2022-08-31T19:44:07.644Z,0.80
2022-08-31T19:46:38.569Z,0.60
2022-08-31T19:49:09.720Z,0.60
2022-08-31T19:51:40.166Z,0.60
2022-08-31T19:54:11.873Z,1.00
2022-08-31T19:56:41.293Z,0.83
2022-08-31T19:59:10.288Z,0.80
2022-08-31T20:01:41.764Z,0.90
2022-08-31T20:04:15.902Z,0.90
2022-08-31T20:06:45.682Z,1.00
2022-08-31T20:09:14.354Z,0.90
2022-08-31T20:11:43.191Z,1.10
2022-08-31T20:14:13.394Z,1.30
2022-08-31T20:16:43.741Z,1.20
2022-08-31T20:19:14.090Z,1.20
2022-08-31T20:21:42.895Z,1.10
2022-08-31T20:24:13.029Z,1.40
2022-08-31T20:26:47.532Z,1.23
2022-08-31T20:29:21.623Z,1.30
2022-08-31T20:31:55.419Z,1.30
2022-08-31T20:34:28.077Z,1.33
2022-08-31T20:37:00.963Z,1.27
2022-08-31T20:39:31.191Z,1.10
2022-08-31T20:42:00.357Z,1.03
2022-08-31T20:44:30.216Z,1.13
2022-08-31T20:47:19.098Z,1.20
2022-08-31T20:49:48.399Z,0.90
2022-08-31T20:52:17.764Z,0.90
2022-08-31T20:54:46.698Z,0.90
2022-08-31T20:57:18.206Z,0.80
2022-08-31T20:59:46.775Z,1.00
2022-08-31T21:02:17.587Z,1.30
2022-08-31T21:04:46.612Z,1.13
2022-08-31T21:07:16.170Z,1.13
2022-08-31T21:09:45.821Z,1.10
2022-08-31T21:12:18.190Z,1.20
2022-08-31T21:14:47.229Z,1.20
2022-08-31T21:17:17.179Z,1.40
2022-08-31T21:19:46.279Z,1.30
2022-08-31T21:22:17.467Z,1.50
2022-08-31T21:24:46.632Z,1.40
2022-08-31T21:27:16.959Z,1.33
2022-08-31T21:29:47.221Z,1.20
2022-08-31T21:32:18.185Z,1.30
2022-08-31T21:34:47.022Z,1.30
2022-08-31T21:37:15.610Z,1.00
2022-08-31T21:39:44.121Z,1.00
2022-08-31T21:42:12.852Z,1.13
2022-08-31T21:44:41.425Z,1.30
2022-08-31T21:47:14.863Z,1.20
2022-08-31T21:49:45.118Z,1.07
2022-08-31T21:52:14.249Z,1.30
2022-08-31T21:54:44.848Z,1.47
2022-08-31T21:57:15.326Z,1.40
2022-08-31T21:59:43.867Z,1.30
2022-08-31T22:02:13.962Z,1.50
2022-08-31T22:04:43.430Z,1.43
2022-08-31T22:07:14.230Z,1.30
2022-08-31T22:09:43.326Z,1.20
2022-08-31T22:12:15.098Z,1.20
2022-08-31T22:14:44.773Z,1.23
2022-08-31T22:17:14.556Z,1.30
2022-08-31T22:19:43.801Z,1.30
2022-08-31T22:22:14.229Z,1.20
2022-08-31T22:24:43.425Z,1.40
2022-08-31T22:27:13.628Z,1.30
2022-08-31T22:29:42.653Z,1.10
2022-08-31T22:32:13.901Z,1.30
2022-08-31T22:34:43.421Z,1.50
2022-08-31T22:37:14.284Z,1.53
2022-08-31T22:39:43.498Z,1.10
2022-08-31T22:42:14.071Z,1.30
2022-08-31T22:44:43.146Z,1.20
2022-08-31T22:47:11.625Z,1.37
2022-08-31T22:49:40.341Z,1.23
2022-08-31T22:52:08.822Z,1.10
2022-08-31T22:54:38.689Z,0.83
2022-08-31T22:57:08.822Z,1.30
2022-08-31T22:59:38.973Z,1.20
2022-08-31T23:02:07.581Z,1.13
2022-08-31T23:04:37.813Z,1.20
2022-08-31T23:07:09.477Z,1.20
2022-08-31T23:09:39.423Z,1.20
2022-08-31T23:12:08.102Z,1.23
2022-08-31T23:14:37.581Z,1.20
2022-08-31T23:17:08.881Z,1.13
2022-08-31T23:19:40.305Z,1.10
2022-08-31T23:22:11.166Z,1.00
2022-08-31T23:24:42.339Z,1.10
2022-08-31T23:27:11.642Z,0.90
2022-08-31T23:29:41.226Z,0.80
2022-08-31T23:32:12.129Z,1.10
2022-08-31T23:34:41.782Z,1.20
2022-08-31T23:37:11.218Z,0.90
2022-08-31T23:39:43.490Z,0.70
2022-08-31T23:42:14.023Z,0.90
2022-08-31T23:44:43.625Z,1.10
2022-08-31T23:47:13.620Z,0.77
2022-08-31T23:49:44.046Z,1.00
2022-08-31T23:52:13.359Z,0.90
2022-08-31T23:54:43.257Z,1.20
2022-08-31T23:57:31.514Z,1.30
